Terminal Aerodrome Forecast
Issued by NWS Spokane, WA

Home | Current Version | Previous Version | Text Only | Print | Product List | Glossary On
Versions: 1 2 3 4 5 6 7 8 9 10 11 12 13 14 15 16 17 18 19 20 21 22 23 24 25 26
000
FTUS46 KOTX 282336
TAFLWS
TAF
KLWS 282336Z 2900/2924 VRB03KT P6SM -SHRA BKN030 OVC060
     FM290300 12005KT P6SM OVC050
      TEMPO 2905/2909 5SM -SN BKN025 OVC050
     FM291500 12008KT P6SM FEW250
     FM291800 34011KT P6SM BKN100
     FM292100 30013KT P6SM BKN100=

USA.gov is the U.S. government's official web portal to all federal, state and local government web resources and services.